Flinterduin — PEBT — position and weather

sailwx.info

Track history (hours):
 
Tides and Currents Weather Stations Pressure Air Temp Water Temp Dewpoint Dewpoint Depression Visibility Wind Speed Wind Dir Waves Ship Positions

Flinterduin

Last reported at 2019-Oct-22 20:30 UTC. Time now 2019-Oct-22 21:09 UTC.
Position N 54°09' E 012°06'.

Length 112 m; beam 15 m.

Type: Cargo ship. MMSI: 246484000.

Date/timePositionNaut miles runAvg speedWind from/ knotsBaromVisibWave heightAir tempDewpointWater temp
2019-Oct-22 20:30N 54°09' E 012°06'0 0.0
2019-Oct-22 17:43N 54°09' E 012°06'0 0.0
2019-Oct-22 17:30N 54°09' E 012°06'0 0.0
2019-Oct-22 15:50N 54°09' E 012°06'0 0.0
2019-Oct-22 15:24N 54°09' E 012°06'0 0.0
2019-Oct-22 14:54N 54°09' E 012°06'0 0.0
2019-Oct-22 13:42N 54°09' E 012°06'0 0.0
2019-Oct-22 13:30N 54°09' E 012°06'0 0.0
2019-Oct-22 12:14N 54°09' E 012°06'0 0.1
2019-Oct-22 12:00N 54°09' E 012°06'0 0.0
2019-Oct-22 11:30N 54°09' E 012°06'0 0.0
2019-Oct-22 10:52N 54°09' E 012°06'0 0.0
2019-Oct-22 09:30N 54°09' E 012°06'0 0.0
2019-Oct-22 09:00N 54°09' E 012°06'0 0.0
2019-Oct-22 07:30N 54°09' E 012°06'4 2.5
2019-Oct-22 05:45N 54°13' E 012°03'210.4
2019-Oct-22 05:30N 54°15' E 012°01'1611.3
2019-Oct-22 04:06N 54°25' E 011°39'111.7
2019-Oct-22 03:59N 54°25' E 011°37'611.8
2019-Oct-22 03:30N 54°28' E 011°29'611.1
2019-Oct-22 03:00N 54°31' E 011°21'510.8
2019-Oct-22 02:30N 54°34' E 011°13'510.7
2019-Oct-22 02:00N 54°35' E 011°03'611.4
2019-Oct-22 01:30N 54°34' E 010°54'611.9
2019-Oct-22 01:00N 54°33' E 010°43'711.9
2019-Oct-22 00:25N 54°32' E 010°31'511.6
2019-Oct-22 00:00N 54°30' E 010°24'510.3
2019-Oct-21 23:30N 54°28' E 010°16'510.9
2019-Oct-21 23:00N 54°23' E 010°12'2 4.4
2019-Oct-21 22:30N 54°22' E 010°08'3 5.9
2019-Oct-21 22:00N 54°22' E 010°03'4 8.1
2019-Oct-21 21:30N 54°20' E 009°57'5 9.4
2019-Oct-21 21:00N 54°22' E 009°49'5 9.2
2019-Oct-21 20:30N 54°19' E 009°43'4 8.1
2019-Oct-21 20:00N 54°16' E 009°38'0 0.5
2019-Oct-21 19:30N 54°16' E 009°38'2 3.7
2019-Oct-21 19:00N 54°14' E 009°37'4 8.4
2019-Oct-21 18:30N 54°11' E 009°31'4 8.5
2019-Oct-21 18:00N 54°10' E 009°25'4 8.0
2019-Oct-21 17:29N 54°07' E 009°20'4 8.7
2019-Oct-21 17:00N 54°03' E 009°18'4 8.6
2019-Oct-21 16:30N 53°58' E 009°16'5 8.8
2019-Oct-21 15:56N 53°55' E 009°11'2 3.6
2019-Oct-21 15:29N 53°53' E 009°09'3 6.0
2019-Oct-21 15:00N 53°52' E 009°04'714.2
2019-Oct-21 14:29N 53°50' E 008°52'713.3
2019-Oct-21 14:00N 53°53' E 008°42'713.8
2019-Oct-21 13:29N 53°58' E 008°33'714.0
2019-Oct-21 13:00N 53°59' E 008°22'813.1
2019-Oct-21 12:24N 53°59' E 008°08'512.3
2019-Oct-21 12:00N 53°58' E 008°00'612.7
2019-Oct-21 11:30N 53°56' E 007°50'2011.8
2019-Oct-21 09:49N 53°52' E 007°17'310.8
2019-Oct-21 09:29N 53°51' E 007°11'510.4
2019-Oct-21 09:00N 53°50' E 007°03'510.3
2019-Oct-21 08:29N 53°49' E 006°54'6210.5
2019-Oct-21 02:33N 53°31' E 005°14'011.0
2019-Oct-21 02:30N 53°31' E 005°13'7311.3
2019-Oct-20 20:04N 52°37' E 003°53'1212.6
2019-Oct-20 19:06N 52°28' E 003°39'313.0
2019-Oct-20 18:55N 52°26' E 003°36'913.0
2019-Oct-20 18:14N 52°20' E 003°26'313.1
2019-Oct-20 18:00N 52°17' E 003°23'1413.1
2019-Oct-20 16:58N 52°08' E 003°07'4711.9
2019-Oct-20 13:01N 51°31' E 002°19'210.4
2019-Oct-20 12:48N 51°29' E 002°17'310.6
2019-Oct-20 12:29N 51°27' E 002°14'510.6
2019-Oct-20 12:01N 51°22' E 002°10'510.4
2019-Oct-20 11:30N 51°18' E 002°06'510.0
2019-Oct-20 11:00N 51°13' E 002°02'510.1
2019-Oct-20 10:30N 51°11' E 001°55'510.2
2019-Oct-20 10:00N 51°08' E 001°48'510.0
2019-Oct-20 09:30N 51°05' E 001°43'510.1
2019-Oct-20 09:00N 51°01' E 001°37'510.3
2019-Oct-20 08:31N 50°57' E 001°32'610.8
2019-Oct-20 07:59N 50°52' E 001°27'511.4
2019-Oct-20 07:30N 50°47' E 001°23'2011.5
2019-Oct-20 05:49N 50°34' E 001°01'13913.2
2019-Oct-19 19:21N 50°13' W 002°34'411.8
2019-Oct-19 18:59N 50°13' W 002°40'611.6
2019-Oct-19 18:28N 50°13' W 002°50'511.6
2019-Oct-19 18:01N 50°12' W 002°58'611.4
2019-Oct-19 17:30N 50°11' W 003°07'611.3
2019-Oct-19 17:00N 50°10' W 003°15'611.2
2019-Oct-19 16:30N 50°09' W 003°24'611.1
2019-Oct-19 16:00N 50°08' W 003°32'611.1
2019-Oct-19 15:30N 50°07' W 003°41'611.3
2019-Oct-19 15:00N 50°06' W 003°50'611.5
2019-Oct-19 14:30N 50°04' W 003°58'611.7
2019-Oct-19 13:59N 50°03' W 004°08'611.8
2019-Oct-19 13:30N 50°02' W 004°16'611.9
2019-Oct-19 13:00N 50°01' W 004°25'14610.2
2019-Oct-18 22:48N 51°22' W 007°37'311.8
2019-Oct-18 22:31N 51°24' W 007°40'612.0
2019-Oct-18 22:01N 51°28' W 007°47'612.0
2019-Oct-18 21:30N 51°33' W 007°54'611.9
2019-Oct-18 21:00N 51°37' W 008°01'611.7
2019-Oct-18 20:30N 51°41' W 008°07'611.8
2019-Oct-18 20:00N 51°45' W 008°14'510.2
2019-Oct-18 19:30N 51°50' W 008°16'2 4.5
2019-Oct-18 18:58N 51°50' W 008°20'0 0.0
2019-Oct-18 18:28N 51°50' W 008°20'0 0.0
2019-Oct-18 17:58N 51°50' W 008°20'0 0.0
2019-Oct-18 17:28N 51°50' W 008°20'0 0.0
2019-Oct-18 16:55N 51°50' W 008°20'0 0.0
2019-Oct-18 16:28N 51°50' W 008°20'0 0.0
2019-Oct-18 15:58N 51°50' W 008°20'0 0.0
2019-Oct-18 15:28N 51°50' W 008°20'0 0.0
2019-Oct-18 14:58N 51°50' W 008°20'0 0.0
2019-Oct-18 14:28N 51°50' W 008°20'0 0.0
2019-Oct-18 13:58N 51°50' W 008°20'0 0.0
2019-Oct-18 13:28N 51°50' W 008°20'0 0.0
2019-Oct-18 12:58N 51°50' W 008°20'0 0.0
2019-Oct-18 12:28N 51°50' W 008°20'0 0.0
2019-Oct-18 11:58N 51°50' W 008°20'0 0.0
2019-Oct-18 11:28N 51°50' W 008°20'0 0.0
2019-Oct-18 10:58N 51°50' W 008°20'0 0.0
2019-Oct-18 10:28N 51°50' W 008°20'0 0.0
2019-Oct-18 09:56N 51°50' W 008°20'0 0.0
2019-Oct-18 09:29N 51°50' W 008°20'0 0.0
2019-Oct-18 08:59N 51°50' W 008°20'0 0.0
2019-Oct-18 08:29N 51°50' W 008°20'0 0.0
2019-Oct-18 07:59N 51°50' W 008°20'0 0.0
2019-Oct-18 07:28N 51°50' W 008°20'0 0.0
2019-Oct-18 06:58N 51°50' W 008°20'0 0.0
2019-Oct-18 06:28N 51°50' W 008°20'0 0.0
2019-Oct-18 05:58N 51°50' W 008°20'0 0.0
2019-Oct-18 05:28N 51°50' W 008°20'0 0.0
2019-Oct-18 04:58N 51°50' W 008°20'0 0.0
2019-Oct-18 04:28N 51°50' W 008°20'0 0.0
2019-Oct-18 03:58N 51°50' W 008°20'0 0.0
2019-Oct-18 03:28N 51°50' W 008°20'0 0.0
2019-Oct-18 02:58N 51°50' W 008°20'0 0.0
2019-Oct-18 02:28N 51°50' W 008°20'0 0.0
2019-Oct-18 01:58N 51°50' W 008°20'0 0.0
2019-Oct-18 01:28N 51°50' W 008°20'0 0.0
2019-Oct-18 00:58N 51°50' W 008°20'0 0.0
2019-Oct-18 00:28N 51°50' W 008°20'0 0.0
2019-Oct-17 23:58N 51°50' W 008°20'0 0.0
2019-Oct-17 23:28N 51°50' W 008°20'0 0.0
2019-Oct-17 22:58N 51°50' W 008°20'0 0.0
2019-Oct-17 22:28N 51°50' W 008°20'0 0.0
2019-Oct-17 21:58N 51°50' W 008°20'0 0.0
2019-Oct-17 21:28N 51°50' W 008°20'0 0.0
2019-Oct-17 20:58N 51°50' W 008°20'0 0.0
2019-Oct-17 20:25N 51°50' W 008°20'0 0.0
2019-Oct-17 19:58N 51°50' W 008°20'0 0.0
2019-Oct-17 19:28N 51°50' W 008°20'0 0.0
2019-Oct-17 18:58N 51°50' W 008°20'0 0.0
2019-Oct-17 18:28N 51°50' W 008°20'0 0.0
2019-Oct-17 17:58N 51°50' W 008°20'0 1.0
2019-Oct-17 17:30N 51°50' W 008°19'2 4.3
2019-Oct-17 17:00N 51°50' W 008°16'5 9.2
2019-Oct-17 16:30N 51°46' W 008°14'5 9.7
2019-Oct-17 16:00N 51°45' W 008°06'5 9.5
2019-Oct-17 15:30N 51°44' W 007°58'5 9.4
2019-Oct-17 15:00N 51°44' W 007°51'5 9.6
2019-Oct-17 14:30N 51°44' W 007°43'5 9.4
2019-Oct-17 14:00N 51°44' W 007°36'73 9.6
2019-Oct-17 06:24N 51°33' W 005°39'4 9.3
2019-Oct-17 06:00N 51°32' W 005°34'5 9.4
2019-Oct-17 05:30N 51°32' W 005°26'5 9.2
2019-Oct-17 05:00N 51°31' W 005°19'4 8.8
2019-Oct-17 04:30N 51°30' W 005°12'4 8.8
2019-Oct-17 04:00N 51°30' W 005°05'5 8.6
2019-Oct-17 03:26N 51°29' W 004°57'4 9.0
2019-Oct-17 02:59N 51°29' W 004°51'6911.7
2019-Oct-16 21:08N 51°27' W 003°00'111.0
2019-Oct-16 21:00N 51°27' W 002°58'510.4
2019-Oct-16 20:30N 51°29' W 002°50'4 8.3
2019-Oct-16 20:00N 51°30' W 002°44'1 1.1
2019-Oct-16 19:30N 51°30' W 002°43'0 0.3
2019-Oct-16 19:00N 51°30' W 002°43'0 0.0
2019-Oct-16 18:30N 51°30' W 002°43'0 0.0
2019-Oct-16 18:00N 51°30' W 002°43'0 0.0
2019-Oct-16 17:30N 51°30' W 002°43'0 0.0
2019-Oct-16 17:00N 51°30' W 002°43'0 0.0
2019-Oct-16 16:30N 51°30' W 002°43'0 0.0
2019-Oct-16 16:00N 51°30' W 002°43'0 0.0
2019-Oct-16 15:30N 51°30' W 002°43'0 0.0
2019-Oct-16 15:00N 51°30' W 002°43'0 0.1
2019-Oct-16 14:30N 51°30' W 002°43'0 0.1
2019-Oct-16 14:00N 51°30' W 002°43'0 0.0
2019-Oct-16 13:30N 51°30' W 002°43'0 0.0
2019-Oct-16 13:00N 51°30' W 002°43'0 0.0
2019-Oct-16 12:30N 51°30' W 002°43'0 0.0
2019-Oct-16 12:00N 51°30' W 002°43'0 0.0
2019-Oct-16 11:30N 51°30' W 002°43'0 0.0
2019-Oct-16 11:00N 51°30' W 002°43'0 0.0
2019-Oct-16 10:30N 51°30' W 002°43'0 0.0
2019-Oct-16 10:00N 51°30' W 002°43'0 0.0
2019-Oct-16 09:30N 51°30' W 002°43'0 0.0
2019-Oct-16 09:00N 51°30' W 002°43'0 0.0
2019-Oct-16 08:30N 51°30' W 002°43'0 0.0
2019-Oct-16 07:59N 51°30' W 002°43'0 0.0
2019-Oct-16 07:29N 51°30' W 002°43'0 0.0
2019-Oct-16 06:59N 51°30' W 002°43'0 0.0
2019-Oct-16 06:29N 51°30' W 002°43'0 0.0
2019-Oct-16 05:59N 51°30' W 002°43'0 0.0
2019-Oct-16 05:29N 51°30' W 002°43'0 0.0
2019-Oct-16 04:59N 51°30' W 002°43'0 0.0
2019-Oct-16 04:29N 51°30' W 002°43'0 0.0
2019-Oct-16 03:59N 51°30' W 002°43'0 0.0
2019-Oct-16 03:29N 51°30' W 002°43'0 0.0
2019-Oct-16 02:59N 51°30' W 002°43'0 0.0
2019-Oct-16 02:29N 51°30' W 002°43'0 0.0
2019-Oct-16 01:59N 51°30' W 002°43'0 0.0
2019-Oct-16 01:29N 51°30' W 002°43'0 0.0
2019-Oct-16 00:59N 51°30' W 002°43'0 0.0
2019-Oct-16 00:29N 51°30' W 002°43'0 0.0
2019-Oct-15 23:59N 51°30' W 002°43'0 0.0
2019-Oct-15 23:29N 51°30' W 002°43'0 0.0
2019-Oct-15 22:59N 51°30' W 002°43'0 0.0
2019-Oct-15 22:29N 51°30' W 002°43'0 0.0
2019-Oct-15 21:59N 51°30' W 002°43'0 0.0
2019-Oct-15 21:29N 51°30' W 002°43'0 0.0
2019-Oct-15 20:59N 51°30' W 002°43'0 0.0
2019-Oct-15 20:26N 51°30' W 002°43'0 0.0
2019-Oct-15 19:59N 51°30' W 002°43'0 0.0
2019-Oct-15 19:29N 51°30' W 002°43'0 0.0
2019-Oct-15 18:59N 51°30' W 002°43'0 0.0
2019-Oct-15 18:29N 51°30' W 002°43'0 0.0
2019-Oct-15 17:59N 51°30' W 002°43'0 0.0
2019-Oct-15 17:29N 51°30' W 002°43'0 0.0
2019-Oct-15 16:59N 51°30' W 002°43'0 0.0
2019-Oct-15 16:29N 51°30' W 002°43'0 0.0
2019-Oct-15 15:59N 51°30' W 002°43'0 0.0
2019-Oct-15 15:29N 51°30' W 002°43'0 0.0
2019-Oct-15 14:59N 51°30' W 002°43'0 0.0
2019-Oct-15 14:29N 51°30' W 002°43'0 0.0
2019-Oct-15 13:59N 51°30' W 002°43'0 0.0
2019-Oct-15 13:29N 51°30' W 002°43'0 0.0
2019-Oct-15 12:59N 51°30' W 002°43'0 0.0
2019-Oct-15 12:29N 51°30' W 002°43'0 0.0
2019-Oct-15 11:59N 51°30' W 002°43'0 0.0
2019-Oct-15 11:29N 51°30' W 002°43'0 0.0
2019-Oct-15 10:59N 51°30' W 002°43'0 0.0
2019-Oct-15 10:29N 51°30' W 002°43'0 0.0
2019-Oct-15 09:56N 51°30' W 002°43'0 0.0
2019-Oct-15 09:29N 51°30' W 002°43'0 0.0
2019-Oct-15 08:59N 51°30' W 002°43'0 0.0
2019-Oct-15 08:29N 51°30' W 002°43'0 0.0
2019-Oct-15 07:59N 51°30' W 002°43'0 0.0
2019-Oct-15 07:29N 51°30' W 002°43'0 0.0
2019-Oct-15 06:59N 51°30' W 002°43'0 0.0
2019-Oct-15 06:29N 51°30' W 002°43'0 0.0
2019-Oct-15 05:59N 51°30' W 002°43'0 0.0
2019-Oct-15 05:29N 51°30' W 002°43'0 0.0
2019-Oct-15 04:59N 51°30' W 002°43'0 0.0
2019-Oct-15 04:29N 51°30' W 002°43'0 0.0
2019-Oct-15 03:59N 51°30' W 002°43'0 0.0
2019-Oct-15 03:29N 51°30' W 002°43'0 0.0
2019-Oct-15 02:59N 51°30' W 002°43'0 0.0
2019-Oct-15 02:29N 51°30' W 002°43'0 0.0
2019-Oct-15 01:59N 51°30' W 002°43'0 0.0
2019-Oct-15 01:29N 51°30' W 002°43'0 0.0
2019-Oct-15 00:59N 51°30' W 002°43'0 0.0
2019-Oct-15 00:29N 51°30' W 002°43'0 0.0
2019-Oct-14 23:59N 51°30' W 002°43'0 0.0
2019-Oct-14 23:29N 51°30' W 002°43'0 0.0
2019-Oct-14 22:59N 51°30' W 002°43'0 0.0
2019-Oct-14 22:29N 51°30' W 002°43'0 0.0
2019-Oct-14 21:59N 51°30' W 002°43'0 0.0
2019-Oct-14 21:29N 51°30' W 002°43'0 0.0
2019-Oct-14 20:59N 51°30' W 002°43'0 0.0
2019-Oct-14 20:29N 51°30' W 002°43'0 0.0
2019-Oct-14 19:55N 51°30' W 002°43'0 0.0
2019-Oct-14 19:28N 51°30' W 002°43'0 0.0
2019-Oct-14 18:58N 51°30' W 002°43'0 0.1
2019-Oct-14 18:30N 51°30' W 002°43'0 0.9
2019-Oct-14 18:00N 51°30' W 002°44'0 0.8
2019-Oct-14 17:30N 51°30' W 002°44'3 6.3
2019-Oct-14 17:00N 51°29' W 002°48'713.4
2019-Oct-14 16:31N 51°27' W 002°59'712.9
2019-Oct-14 16:00N 51°24' W 003°08'61 5.5
2019-Oct-14 04:58N 51°01' W 004°38'613.9
2019-Oct-14 04:30N 50°57' W 004°45'713.5
2019-Oct-14 04:00N 50°52' W 004°54'713.5
2019-Oct-14 03:31N 50°48' W 005°02'713.4
2019-Oct-14 03:01N 50°44' W 005°10'713.3
2019-Oct-14 02:31N 50°40' W 005°18'713.2
2019-Oct-14 02:01N 50°35' W 005°26'813.0
2019-Oct-14 01:22N 50°30' W 005°36'  
Track history (hours):
 
Tides and Currents Weather Stations Pressure Air Temp Water Temp Dewpoint Dewpoint Depression Visibility Wind Speed Wind Dir Waves Ship Positions

Flinterduin

Last reported at 2019-Oct-22 20:30 UTC. Time now 2019-Oct-22 21:09 UTC.
Position N 54°09' E 012°06'.

Length 112 m; beam 15 m.

Type: Cargo ship. MMSI: 246484000.

Date/timePositionNaut miles runAvg speedWind from/ knotsBaromVisibWave heightAir tempDewpointWater temp
2019-Oct-22 20:30N 54°09' E 012°06'0 0.0
2019-Oct-22 17:43N 54°09' E 012°06'0 0.0
2019-Oct-22 17:30N 54°09' E 012°06'0 0.0
2019-Oct-22 15:50N 54°09' E 012°06'0 0.0
2019-Oct-22 15:24N 54°09' E 012°06'0 0.0
2019-Oct-22 14:54N 54°09' E 012°06'0 0.0
2019-Oct-22 13:42N 54°09' E 012°06'0 0.0
2019-Oct-22 13:30N 54°09' E 012°06'0 0.0
2019-Oct-22 12:14N 54°09' E 012°06'0 0.1
2019-Oct-22 12:00N 54°09' E 012°06'0 0.0
2019-Oct-22 11:30N 54°09' E 012°06'0 0.0
2019-Oct-22 10:52N 54°09' E 012°06'0 0.0
2019-Oct-22 09:30N 54°09' E 012°06'0 0.0
2019-Oct-22 09:00N 54°09' E 012°06'0 0.0
2019-Oct-22 07:30N 54°09' E 012°06'4 2.5
2019-Oct-22 05:45N 54°13' E 012°03'210.4
2019-Oct-22 05:30N 54°15' E 012°01'1611.3
2019-Oct-22 04:06N 54°25' E 011°39'111.7
2019-Oct-22 03:59N 54°25' E 011°37'611.8
2019-Oct-22 03:30N 54°28' E 011°29'611.1
2019-Oct-22 03:00N 54°31' E 011°21'510.8
2019-Oct-22 02:30N 54°34' E 011°13'510.7
2019-Oct-22 02:00N 54°35' E 011°03'611.4
2019-Oct-22 01:30N 54°34' E 010°54'611.9
2019-Oct-22 01:00N 54°33' E 010°43'711.9
2019-Oct-22 00:25N 54°32' E 010°31'511.6
2019-Oct-22 00:00N 54°30' E 010°24'510.3
2019-Oct-21 23:30N 54°28' E 010°16'510.9
2019-Oct-21 23:00N 54°23' E 010°12'2 4.4
2019-Oct-21 22:30N 54°22' E 010°08'3 5.9
2019-Oct-21 22:00N 54°22' E 010°03'4 8.1
2019-Oct-21 21:30N 54°20' E 009°57'5 9.4
2019-Oct-21 21:00N 54°22' E 009°49'5 9.2
2019-Oct-21 20:30N 54°19' E 009°43'4 8.1
2019-Oct-21 20:00N 54°16' E 009°38'0 0.5
2019-Oct-21 19:30N 54°16' E 009°38'2 3.7
2019-Oct-21 19:00N 54°14' E 009°37'4 8.4
2019-Oct-21 18:30N 54°11' E 009°31'4 8.5
2019-Oct-21 18:00N 54°10' E 009°25'4 8.0
2019-Oct-21 17:29N 54°07' E 009°20'4 8.7
2019-Oct-21 17:00N 54°03' E 009°18'4 8.6
2019-Oct-21 16:30N 53°58' E 009°16'5 8.8
2019-Oct-21 15:56N 53°55' E 009°11'2 3.6
2019-Oct-21 15:29N 53°53' E 009°09'3 6.0
2019-Oct-21 15:00N 53°52' E 009°04'714.2
2019-Oct-21 14:29N 53°50' E 008°52'713.3
2019-Oct-21 14:00N 53°53' E 008°42'713.8
2019-Oct-21 13:29N 53°58' E 008°33'714.0
2019-Oct-21 13:00N 53°59' E 008°22'813.1
2019-Oct-21 12:24N 53°59' E 008°08'512.3
2019-Oct-21 12:00N 53°58' E 008°00'612.7
2019-Oct-21 11:30N 53°56' E 007°50'2011.8
2019-Oct-21 09:49N 53°52' E 007°17'310.8
2019-Oct-21 09:29N 53°51' E 007°11'510.4
2019-Oct-21 09:00N 53°50' E 007°03'510.3
2019-Oct-21 08:29N 53°49' E 006°54'6210.5
2019-Oct-21 02:33N 53°31' E 005°14'011.0
2019-Oct-21 02:30N 53°31' E 005°13'7311.3
2019-Oct-20 20:04N 52°37' E 003°53'1212.6
2019-Oct-20 19:06N 52°28' E 003°39'313.0
2019-Oct-20 18:55N 52°26' E 003°36'913.0
2019-Oct-20 18:14N 52°20' E 003°26'313.1
2019-Oct-20 18:00N 52°17' E 003°23'1413.1
2019-Oct-20 16:58N 52°08' E 003°07'4711.9
2019-Oct-20 13:01N 51°31' E 002°19'210.4
2019-Oct-20 12:48N 51°29' E 002°17'310.6
2019-Oct-20 12:29N 51°27' E 002°14'510.6
2019-Oct-20 12:01N 51°22' E 002°10'510.4
2019-Oct-20 11:30N 51°18' E 002°06'510.0
2019-Oct-20 11:00N 51°13' E 002°02'510.1
2019-Oct-20 10:30N 51°11' E 001°55'510.2
2019-Oct-20 10:00N 51°08' E 001°48'510.0
2019-Oct-20 09:30N 51°05' E 001°43'510.1
2019-Oct-20 09:00N 51°01' E 001°37'510.3
2019-Oct-20 08:31N 50°57' E 001°32'610.8
2019-Oct-20 07:59N 50°52' E 001°27'511.4
2019-Oct-20 07:30N 50°47' E 001°23'2011.5
2019-Oct-20 05:49N 50°34' E 001°01'13913.2
2019-Oct-19 19:21N 50°13' W 002°34'411.8
2019-Oct-19 18:59N 50°13' W 002°40'611.6
2019-Oct-19 18:28N 50°13' W 002°50'511.6
2019-Oct-19 18:01N 50°12' W 002°58'611.4
2019-Oct-19 17:30N 50°11' W 003°07'611.3
2019-Oct-19 17:00N 50°10' W 003°15'611.2
2019-Oct-19 16:30N 50°09' W 003°24'611.1
2019-Oct-19 16:00N 50°08' W 003°32'611.1
2019-Oct-19 15:30N 50°07' W 003°41'611.3
2019-Oct-19 15:00N 50°06' W 003°50'611.5
2019-Oct-19 14:30N 50°04' W 003°58'611.7
2019-Oct-19 13:59N 50°03' W 004°08'611.8
2019-Oct-19 13:30N 50°02' W 004°16'611.9
2019-Oct-19 13:00N 50°01' W 004°25'14610.2
2019-Oct-18 22:48N 51°22' W 007°37'311.8
2019-Oct-18 22:31N 51°24' W 007°40'612.0
2019-Oct-18 22:01N 51°28' W 007°47'612.0
2019-Oct-18 21:30N 51°33' W 007°54'611.9
2019-Oct-18 21:00N 51°37' W 008°01'611.7
2019-Oct-18 20:30N 51°41' W 008°07'611.8
2019-Oct-18 20:00N 51°45' W 008°14'510.2
2019-Oct-18 19:30N 51°50' W 008°16'2 4.5
2019-Oct-18 18:58N 51°50' W 008°20'0 0.0
2019-Oct-18 18:28N 51°50' W 008°20'0 0.0
2019-Oct-18 17:58N 51°50' W 008°20'0 0.0
2019-Oct-18 17:28N 51°50' W 008°20'0 0.0
2019-Oct-18 16:55N 51°50' W 008°20'0 0.0
2019-Oct-18 16:28N 51°50' W 008°20'0 0.0
2019-Oct-18 15:58N 51°50' W 008°20'0 0.0
2019-Oct-18 15:28N 51°50' W 008°20'0 0.0
2019-Oct-18 14:58N 51°50' W 008°20'0 0.0
2019-Oct-18 14:28N 51°50' W 008°20'0 0.0
2019-Oct-18 13:58N 51°50' W 008°20'0 0.0
2019-Oct-18 13:28N 51°50' W 008°20'0 0.0
2019-Oct-18 12:58N 51°50' W 008°20'0 0.0
2019-Oct-18 12:28N 51°50' W 008°20'0 0.0
2019-Oct-18 11:58N 51°50' W 008°20'0 0.0
2019-Oct-18 11:28N 51°50' W 008°20'0 0.0
2019-Oct-18 10:58N 51°50' W 008°20'0 0.0
2019-Oct-18 10:28N 51°50' W 008°20'0 0.0
2019-Oct-18 09:56N 51°50' W 008°20'0 0.0
2019-Oct-18 09:29N 51°50' W 008°20'0 0.0
2019-Oct-18 08:59N 51°50' W 008°20'0 0.0
2019-Oct-18 08:29N 51°50' W 008°20'0 0.0
2019-Oct-18 07:59N 51°50' W 008°20'0 0.0
2019-Oct-18 07:28N 51°50' W 008°20'0 0.0
2019-Oct-18 06:58N 51°50' W 008°20'0 0.0
2019-Oct-18 06:28N 51°50' W 008°20'0 0.0
2019-Oct-18 05:58N 51°50' W 008°20'0 0.0
2019-Oct-18 05:28N 51°50' W 008°20'0 0.0
2019-Oct-18 04:58N 51°50' W 008°20'0 0.0
2019-Oct-18 04:28N 51°50' W 008°20'0 0.0
2019-Oct-18 03:58N 51°50' W 008°20'0 0.0
2019-Oct-18 03:28N 51°50' W 008°20'0 0.0
2019-Oct-18 02:58N 51°50' W 008°20'0 0.0
2019-Oct-18 02:28N 51°50' W 008°20'0 0.0
2019-Oct-18 01:58N 51°50' W 008°20'0 0.0
2019-Oct-18 01:28N 51°50' W 008°20'0 0.0
2019-Oct-18 00:58N 51°50' W 008°20'0 0.0
2019-Oct-18 00:28N 51°50' W 008°20'0 0.0
2019-Oct-17 23:58N 51°50' W 008°20'0 0.0
2019-Oct-17 23:28N 51°50' W 008°20'0 0.0
2019-Oct-17 22:58N 51°50' W 008°20'0 0.0
2019-Oct-17 22:28N 51°50' W 008°20'0 0.0
2019-Oct-17 21:58N 51°50' W 008°20'0 0.0
2019-Oct-17 21:28N 51°50' W 008°20'0 0.0
2019-Oct-17 20:58N 51°50' W 008°20'0 0.0
2019-Oct-17 20:25N 51°50' W 008°20'0 0.0
2019-Oct-17 19:58N 51°50' W 008°20'0 0.0
2019-Oct-17 19:28N 51°50' W 008°20'0 0.0
2019-Oct-17 18:58N 51°50' W 008°20'0 0.0
2019-Oct-17 18:28N 51°50' W 008°20'0 0.0
2019-Oct-17 17:58N 51°50' W 008°20'0 1.0
2019-Oct-17 17:30N 51°50' W 008°19'2 4.3
2019-Oct-17 17:00N 51°50' W 008°16'5 9.2
2019-Oct-17 16:30N 51°46' W 008°14'5 9.7
2019-Oct-17 16:00N 51°45' W 008°06'5 9.5
2019-Oct-17 15:30N 51°44' W 007°58'5 9.4
2019-Oct-17 15:00N 51°44' W 007°51'5 9.6
2019-Oct-17 14:30N 51°44' W 007°43'5 9.4
2019-Oct-17 14:00N 51°44' W 007°36'73 9.6
2019-Oct-17 06:24N 51°33' W 005°39'4 9.3
2019-Oct-17 06:00N 51°32' W 005°34'5 9.4
2019-Oct-17 05:30N 51°32' W 005°26'5 9.2
2019-Oct-17 05:00N 51°31' W 005°19'4 8.8
2019-Oct-17 04:30N 51°30' W 005°12'4 8.8
2019-Oct-17 04:00N 51°30' W 005°05'5 8.6
2019-Oct-17 03:26N 51°29' W 004°57'4 9.0
2019-Oct-17 02:59N 51°29' W 004°51'6911.7
2019-Oct-16 21:08N 51°27' W 003°00'111.0
2019-Oct-16 21:00N 51°27' W 002°58'510.4
2019-Oct-16 20:30N 51°29' W 002°50'4 8.3
2019-Oct-16 20:00N 51°30' W 002°44'1 1.1
2019-Oct-16 19:30N 51°30' W 002°43'0 0.3
2019-Oct-16 19:00N 51°30' W 002°43'0 0.0
2019-Oct-16 18:30N 51°30' W 002°43'0 0.0
2019-Oct-16 18:00N 51°30' W 002°43'0 0.0
2019-Oct-16 17:30N 51°30' W 002°43'0 0.0
2019-Oct-16 17:00N 51°30' W 002°43'0 0.0
2019-Oct-16 16:30N 51°30' W 002°43'0 0.0
2019-Oct-16 16:00N 51°30' W 002°43'0 0.0
2019-Oct-16 15:30N 51°30' W 002°43'0 0.0
2019-Oct-16 15:00N 51°30' W 002°43'0 0.1
2019-Oct-16 14:30N 51°30' W 002°43'0 0.1
2019-Oct-16 14:00N 51°30' W 002°43'0 0.0
2019-Oct-16 13:30N 51°30' W 002°43'0 0.0
2019-Oct-16 13:00N 51°30' W 002°43'0 0.0
2019-Oct-16 12:30N 51°30' W 002°43'0 0.0
2019-Oct-16 12:00N 51°30' W 002°43'0 0.0
2019-Oct-16 11:30N 51°30' W 002°43'0 0.0
2019-Oct-16 11:00N 51°30' W 002°43'0 0.0
2019-Oct-16 10:30N 51°30' W 002°43'0 0.0
2019-Oct-16 10:00N 51°30' W 002°43'0 0.0
2019-Oct-16 09:30N 51°30' W 002°43'0 0.0
2019-Oct-16 09:00N 51°30' W 002°43'0 0.0
2019-Oct-16 08:30N 51°30' W 002°43'0 0.0
2019-Oct-16 07:59N 51°30' W 002°43'0 0.0
2019-Oct-16 07:29N 51°30' W 002°43'0 0.0
2019-Oct-16 06:59N 51°30' W 002°43'0 0.0
2019-Oct-16 06:29N 51°30' W 002°43'0 0.0
2019-Oct-16 05:59N 51°30' W 002°43'0 0.0
2019-Oct-16 05:29N 51°30' W 002°43'0 0.0
2019-Oct-16 04:59N 51°30' W 002°43'0 0.0
2019-Oct-16 04:29N 51°30' W 002°43'0 0.0
2019-Oct-16 03:59N 51°30' W 002°43'0 0.0
2019-Oct-16 03:29N 51°30' W 002°43'0 0.0
2019-Oct-16 02:59N 51°30' W 002°43'0 0.0
2019-Oct-16 02:29N 51°30' W 002°43'0 0.0
2019-Oct-16 01:59N 51°30' W 002°43'0 0.0
2019-Oct-16 01:29N 51°30' W 002°43'0 0.0
2019-Oct-16 00:59N 51°30' W 002°43'0 0.0
2019-Oct-16 00:29N 51°30' W 002°43'0 0.0
2019-Oct-15 23:59N 51°30' W 002°43'0 0.0
2019-Oct-15 23:29N 51°30' W 002°43'0 0.0
2019-Oct-15 22:59N 51°30' W 002°43'0 0.0
2019-Oct-15 22:29N 51°30' W 002°43'0 0.0
2019-Oct-15 21:59N 51°30' W 002°43'0 0.0
2019-Oct-15 21:29N 51°30' W 002°43'0 0.0
2019-Oct-15 20:59N 51°30' W 002°43'0 0.0
2019-Oct-15 20:26N 51°30' W 002°43'0 0.0
2019-Oct-15 19:59N 51°30' W 002°43'0 0.0
2019-Oct-15 19:29N 51°30' W 002°43'0 0.0
2019-Oct-15 18:59N 51°30' W 002°43'0 0.0
2019-Oct-15 18:29N 51°30' W 002°43'0 0.0
2019-Oct-15 17:59N 51°30' W 002°43'0 0.0
2019-Oct-15 17:29N 51°30' W 002°43'0 0.0
2019-Oct-15 16:59N 51°30' W 002°43'0 0.0
2019-Oct-15 16:29N 51°30' W 002°43'0 0.0
2019-Oct-15 15:59N 51°30' W 002°43'0 0.0
2019-Oct-15 15:29N 51°30' W 002°43'0 0.0
2019-Oct-15 14:59N 51°30' W 002°43'0 0.0
2019-Oct-15 14:29N 51°30' W 002°43'0 0.0
2019-Oct-15 13:59N 51°30' W 002°43'0 0.0
2019-Oct-15 13:29N 51°30' W 002°43'0 0.0
2019-Oct-15 12:59N 51°30' W 002°43'0 0.0
2019-Oct-15 12:29N 51°30' W 002°43'0 0.0
2019-Oct-15 11:59N 51°30' W 002°43'0 0.0
2019-Oct-15 11:29N 51°30' W 002°43'0 0.0
2019-Oct-15 10:59N 51°30' W 002°43'0 0.0
2019-Oct-15 10:29N 51°30' W 002°43'0 0.0
2019-Oct-15 09:56N 51°30' W 002°43'0 0.0
2019-Oct-15 09:29N 51°30' W 002°43'0 0.0
2019-Oct-15 08:59N 51°30' W 002°43'0 0.0
2019-Oct-15 08:29N 51°30' W 002°43'0 0.0
2019-Oct-15 07:59N 51°30' W 002°43'0 0.0
2019-Oct-15 07:29N 51°30' W 002°43'0 0.0
2019-Oct-15 06:59N 51°30' W 002°43'0 0.0
2019-Oct-15 06:29N 51°30' W 002°43'0 0.0
2019-Oct-15 05:59N 51°30' W 002°43'0 0.0
2019-Oct-15 05:29N 51°30' W 002°43'0 0.0
2019-Oct-15 04:59N 51°30' W 002°43'0 0.0
2019-Oct-15 04:29N 51°30' W 002°43'0 0.0
2019-Oct-15 03:59N 51°30' W 002°43'0 0.0
2019-Oct-15 03:29N 51°30' W 002°43'0 0.0
2019-Oct-15 02:59N 51°30' W 002°43'0 0.0
2019-Oct-15 02:29N 51°30' W 002°43'0 0.0
2019-Oct-15 01:59N 51°30' W 002°43'0 0.0
2019-Oct-15 01:29N 51°30' W 002°43'0 0.0
2019-Oct-15 00:59N 51°30' W 002°43'0 0.0
2019-Oct-15 00:29N 51°30' W 002°43'0 0.0
2019-Oct-14 23:59N 51°30' W 002°43'0 0.0
2019-Oct-14 23:29N 51°30' W 002°43'0 0.0
2019-Oct-14 22:59N 51°30' W 002°43'0 0.0
2019-Oct-14 22:29N 51°30' W 002°43'0 0.0
2019-Oct-14 21:59N 51°30' W 002°43'0 0.0
2019-Oct-14 21:29N 51°30' W 002°43'0 0.0
2019-Oct-14 20:59N 51°30' W 002°43'0 0.0
2019-Oct-14 20:29N 51°30' W 002°43'0 0.0
2019-Oct-14 19:55N 51°30' W 002°43'0 0.0
2019-Oct-14 19:28N 51°30' W 002°43'0 0.0
2019-Oct-14 18:58N 51°30' W 002°43'0 0.1
2019-Oct-14 18:30N 51°30' W 002°43'0 0.9
2019-Oct-14 18:00N 51°30' W 002°44'0 0.8
2019-Oct-14 17:30N 51°30' W 002°44'3 6.3
2019-Oct-14 17:00N 51°29' W 002°48'713.4
2019-Oct-14 16:31N 51°27' W 002°59'712.9
2019-Oct-14 16:00N 51°24' W 003°08'61 5.5
2019-Oct-14 04:58N 51°01' W 004°38'613.9
2019-Oct-14 04:30N 50°57' W 004°45'713.5
2019-Oct-14 04:00N 50°52' W 004°54'713.5
2019-Oct-14 03:31N 50°48' W 005°02'713.4
2019-Oct-14 03:01N 50°44' W 005°10'713.3
2019-Oct-14 02:31N 50°40' W 005°18'713.2
2019-Oct-14 02:01N 50°35' W 005°26'813.0
2019-Oct-14 01:22N 50°30' W 005°36'  

Dump ship's entire track history